createdAt,value
2018-12-15T00:00:44.791Z,15.53
2018-12-15T00:03:14.057Z,14.97
2018-12-15T00:05:43.319Z,16.47
2018-12-15T00:08:12.580Z,14.87
2018-12-15T00:10:41.838Z,15.90
2018-12-15T00:13:11.116Z,14.90
2018-12-15T00:15:40.386Z,15.43
2018-12-15T00:18:09.728Z,14.30
2018-12-15T00:20:39.331Z,14.63
2018-12-15T00:23:08.619Z,14.77
2018-12-15T00:25:37.935Z,13.97
2018-12-15T00:28:07.212Z,13.50
2018-12-15T00:30:36.505Z,14.50
2018-12-15T00:33:05.846Z,15.13
2018-12-15T00:35:35.171Z,15.00
2018-12-15T00:38:04.492Z,13.60
2018-12-15T00:40:33.783Z,14.50
2018-12-15T00:43:03.041Z,13.83
2018-12-15T00:45:32.316Z,14.50
2018-12-15T00:48:01.607Z,13.20
2018-12-15T00:50:31.099Z,12.60
2018-12-15T00:53:00.382Z,12.40
2018-12-15T00:55:29.671Z,13.57
2018-12-15T00:57:58.995Z,13.10
2018-12-15T01:00:28.271Z,14.17
2018-12-15T01:02:57.615Z,12.53
2018-12-15T01:05:27.090Z,14.00
2018-12-15T01:07:56.459Z,13.90
2018-12-15T01:10:25.739Z,14.03
2018-12-15T01:12:55.153Z,13.93
2018-12-15T01:15:29.842Z,13.70
2018-12-15T01:17:59.117Z,14.90
2018-12-15T01:20:28.383Z,13.77
2018-12-15T01:22:57.685Z,13.40
2018-12-15T01:25:26.955Z,13.63
2018-12-15T01:27:56.244Z,13.67
2018-12-15T01:30:25.577Z,13.03
2018-12-15T01:32:54.851Z,12.90
2018-12-15T01:35:24.171Z,13.73
2018-12-15T01:37:53.414Z,13.90
2018-12-15T01:40:22.714Z,14.00
2018-12-15T01:42:52.002Z,14.50
2018-12-15T01:45:21.305Z,14.43
2018-12-15T01:47:50.586Z,14.53
2018-12-15T01:50:19.891Z,14.40
2018-12-15T01:52:49.206Z,13.80
2018-12-15T01:55:18.494Z,13.73
2018-12-15T01:57:48.290Z,14.00
2018-12-15T02:00:17.544Z,14.27
2018-12-15T02:02:46.874Z,14.27
2018-12-15T02:05:16.220Z,14.33
2018-12-15T02:07:45.592Z,14.90
2018-12-15T02:10:14.904Z,17.10
2018-12-15T02:12:44.171Z,14.63
2018-12-15T02:15:13.738Z,13.57
2018-12-15T02:17:43.141Z,15.17
2018-12-15T02:20:12.428Z,13.37
2018-12-15T02:22:41.723Z,14.70
2018-12-15T02:25:11.146Z,15.50
2018-12-15T02:27:40.525Z,14.90
2018-12-15T02:30:10.173Z,15.37
2018-12-15T02:32:39.458Z,15.20
2018-12-15T02:35:08.744Z,14.70
2018-12-15T02:37:38.048Z,14.80
2018-12-15T02:40:07.363Z,14.03
2018-12-15T02:42:36.662Z,15.00
2018-12-15T02:45:06.087Z,13.63
2018-12-15T02:47:41.510Z,14.07
2018-12-15T02:50:06.635Z,15.10
2018-12-15T02:52:35.918Z,14.07
2018-12-15T02:55:05.313Z,15.77
2018-12-15T02:57:34.616Z,15.73
2018-12-15T03:00:05.129Z,15.40
2018-12-15T03:02:34.402Z,14.93
2018-12-15T03:05:04.149Z,14.73
2018-12-15T03:07:33.469Z,14.73
2018-12-15T03:10:02.831Z,14.67
2018-12-15T03:12:32.103Z,14.37
2018-12-15T03:15:01.389Z,15.50
2018-12-15T03:17:30.672Z,15.20
2018-12-15T03:20:01.338Z,14.63
2018-12-15T03:22:30.709Z,15.63
2018-12-15T03:25:00.013Z,15.60
2018-12-15T03:27:29.262Z,15.27
2018-12-15T03:29:58.568Z,15.67
2018-12-15T03:32:27.866Z,15.50
2018-12-15T03:34:58.150Z,15.13
2018-12-15T03:37:27.417Z,14.20
2018-12-15T03:39:56.942Z,15.27
2018-12-15T03:42:26.224Z,15.60
2018-12-15T03:44:55.557Z,14.70
2018-12-15T03:47:24.933Z,14.00
2018-12-15T03:49:54.180Z,14.57
2018-12-15T03:52:23.510Z,15.33
2018-12-15T03:54:52.798Z,15.90
2018-12-15T03:57:22.139Z,15.27
2018-12-15T03:59:51.407Z,14.77
2018-12-15T04:02:20.680Z,15.10
2018-12-15T04:04:50.118Z,14.43
2018-12-15T04:07:19.395Z,14.63
2018-12-15T04:09:48.689Z,15.57
2018-12-15T04:12:17.985Z,15.67
2018-12-15T04:14:47.275Z,15.07
2018-12-15T04:17:16.546Z,15.03
2018-12-15T04:19:45.862Z,16.00
2018-12-15T04:22:19.218Z,16.17
2018-12-15T04:24:48.497Z,15.90
2018-12-15T04:27:17.850Z,15.47
2018-12-15T04:29:47.219Z,15.23
2018-12-15T04:32:16.490Z,15.93
2018-12-15T04:34:45.750Z,16.80
2018-12-15T04:37:15.010Z,16.20
2018-12-15T04:39:44.300Z,15.97
2018-12-15T04:42:13.698Z,16.87
2018-12-15T04:44:42.960Z,14.87
2018-12-15T04:47:12.684Z,17.57
2018-12-15T04:49:41.989Z,15.13
2018-12-15T04:52:11.319Z,17.03
2018-12-15T04:54:40.904Z,16.43
2018-12-15T04:57:10.192Z,16.07
2018-12-15T04:59:39.468Z,16.40
2018-12-15T05:02:08.743Z,15.90
2018-12-15T05:04:38.017Z,15.87
2018-12-15T05:07:07.323Z,16.20
2018-12-15T05:09:36.560Z,16.90
2018-12-15T05:12:05.824Z,18.00
2018-12-15T05:14:35.093Z,15.97
2018-12-15T05:17:04.366Z,17.73
2018-12-15T05:19:33.640Z,16.43
2018-12-15T05:22:03.486Z,16.70
2018-12-15T05:24:32.815Z,17.47
2018-12-15T05:27:02.085Z,16.37
2018-12-15T05:29:31.386Z,15.93
2018-12-15T05:32:00.753Z,17.13
2018-12-15T05:34:30.040Z,17.40
2018-12-15T05:36:59.336Z,22.90
2018-12-15T05:39:28.624Z,28.63
2018-12-15T05:41:57.957Z,31.37
2018-12-15T05:44:27.262Z,30.27
2018-12-15T05:46:56.528Z,18.27
2018-12-15T05:49:25.831Z,27.40
2018-12-15T05:51:55.157Z,19.50
2018-12-15T05:54:24.479Z,32.87
2018-12-15T05:56:53.769Z,20.97
2018-12-15T05:59:23.369Z,19.27
2018-12-15T06:01:52.915Z,18.93
2018-12-15T06:04:22.385Z,19.03
2018-12-15T06:06:51.676Z,21.83
2018-12-15T06:09:21.132Z,18.27
2018-12-15T06:11:50.489Z,17.43
2018-12-15T06:14:19.766Z,19.50
2018-12-15T06:16:49.826Z,19.43
2018-12-15T06:19:19.161Z,19.70
2018-12-15T06:21:48.475Z,19.37
2018-12-15T06:24:17.731Z,19.77
2018-12-15T06:26:47.019Z,17.70
2018-12-15T06:29:16.299Z,18.60
2018-12-15T06:31:45.579Z,18.37
2018-12-15T06:34:14.864Z,18.93
2018-12-15T06:36:44.141Z,18.83
2018-12-15T06:39:13.422Z,19.03
2018-12-15T06:41:42.763Z,18.43
2018-12-15T06:44:12.959Z,19.57
2018-12-15T06:46:42.238Z,17.73
2018-12-15T06:49:11.507Z,19.17
2018-12-15T06:51:40.807Z,18.93
2018-12-15T06:54:10.068Z,18.97
2018-12-15T06:56:39.347Z,19.27
2018-12-15T06:59:08.630Z,19.40
2018-12-15T07:01:37.924Z,18.93
2018-12-15T07:04:07.202Z,19.60
2018-12-15T07:06:36.462Z,18.33
2018-12-15T07:09:06.532Z,19.10
2018-12-15T07:11:35.814Z,19.33
2018-12-15T07:14:05.104Z,18.00
2018-12-15T07:16:34.371Z,18.33
2018-12-15T07:19:03.702Z,20.30
2018-12-15T07:21:33.007Z,19.27
2018-12-15T07:24:02.291Z,19.20
2018-12-15T07:26:31.580Z,18.53
2018-12-15T07:29:00.850Z,19.00
2018-12-15T07:31:30.137Z,18.77
2018-12-15T07:33:59.467Z,17.90
2018-12-15T07:36:28.790Z,19.57
2018-12-15T07:38:58.078Z,19.47
2018-12-15T07:41:27.352Z,19.17
2018-12-15T07:43:56.660Z,18.83
2018-12-15T07:46:25.964Z,18.80
2018-12-15T07:48:55.270Z,18.40
2018-12-15T07:51:24.582Z,18.50
2018-12-15T07:53:53.849Z,18.57
2018-12-15T07:56:24.901Z,17.60
2018-12-15T07:58:54.230Z,17.90
2018-12-15T08:01:23.547Z,17.70
2018-12-15T08:03:52.804Z,18.27
2018-12-15T08:06:22.112Z,18.40
2018-12-15T08:08:51.388Z,19.57
2018-12-15T08:14:22.498Z,19.40
2018-12-15T08:16:51.778Z,20.40
2018-12-15T08:19:21.079Z,18.10
2018-12-15T08:21:50.329Z,17.33
2018-12-15T08:24:19.617Z,19.33
2018-12-15T08:26:48.915Z,19.83
2018-12-15T08:29:18.175Z,18.00
2018-12-15T08:31:47.466Z,20.73
2018-12-15T08:34:16.755Z,19.47
2018-12-15T08:36:46.082Z,18.77
2018-12-15T08:39:15.466Z,18.90
2018-12-15T08:41:44.766Z,19.60
2018-12-15T08:44:14.087Z,18.53
2018-12-15T08:46:43.348Z,18.27
2018-12-15T08:49:12.634Z,19.47
2018-12-15T08:51:42.519Z,17.70
2018-12-15T08:54:12.087Z,16.83
2018-12-15T08:56:41.456Z,17.67
2018-12-15T08:59:10.728Z,16.33
2018-12-15T09:01:40.132Z,17.93
2018-12-15T09:04:09.398Z,16.33
2018-12-15T09:06:38.682Z,17.00
2018-12-15T09:09:07.993Z,16.50
2018-12-15T09:11:37.274Z,17.30
2018-12-15T09:14:06.577Z,17.70
2018-12-15T09:16:35.842Z,15.77
2018-12-15T09:19:10.987Z,16.23
2018-12-15T09:21:36.387Z,15.50
2018-12-15T09:24:05.689Z,15.30
2018-12-15T09:26:34.975Z,14.60
2018-12-15T09:29:04.349Z,15.93
2018-12-15T09:31:33.572Z,16.10
2018-12-15T09:34:03.888Z,14.80
2018-12-15T09:36:33.159Z,15.87
2018-12-15T09:39:02.492Z,15.57
2018-12-15T09:41:31.749Z,16.63
2018-12-15T09:44:01.180Z,15.17
2018-12-15T09:46:30.524Z,15.43
2018-12-15T09:48:59.797Z,15.30
2018-12-15T09:51:29.098Z,15.10
2018-12-15T09:53:58.467Z,15.30
2018-12-15T09:56:27.747Z,15.90
2018-12-15T09:58:57.102Z,15.43
2018-12-15T10:01:26.447Z,15.77
2018-12-15T10:03:55.800Z,15.83
2018-12-15T10:06:25.372Z,16.27
2018-12-15T10:08:54.634Z,16.27
2018-12-15T10:11:23.962Z,16.47
2018-12-15T10:13:53.264Z,17.00
2018-12-15T10:16:22.594Z,17.97
2018-12-15T10:18:52.026Z,15.03
2018-12-15T10:21:21.400Z,15.93
2018-12-15T10:23:50.707Z,15.93
2018-12-15T10:26:20.754Z,15.60
2018-12-15T10:28:50.124Z,16.13
2018-12-15T10:31:24.995Z,16.40
2018-12-15T10:33:54.362Z,16.47
2018-12-15T10:36:23.653Z,16.17
2018-12-15T10:38:53.062Z,16.57
2018-12-15T10:41:22.358Z,16.47
2018-12-15T10:43:51.749Z,16.93
2018-12-15T10:46:21.028Z,16.37
2018-12-15T10:48:50.294Z,16.27
2018-12-15T10:51:19.972Z,15.83
2018-12-15T10:53:51.360Z,23.00
2018-12-15T10:56:20.721Z,27.83
2018-12-15T10:58:50.015Z,17.50
2018-12-15T11:01:22.350Z,24.13
2018-12-15T11:03:51.632Z,20.97
2018-12-15T11:06:20.978Z,17.27
2018-12-15T11:08:50.271Z,18.00
2018-12-15T11:11:19.547Z,15.53
2018-12-15T11:13:48.887Z,16.33
2018-12-15T11:16:18.159Z,17.03
2018-12-15T11:18:47.458Z,24.87
2018-12-15T11:21:16.745Z,17.77
2018-12-15T11:23:46.011Z,19.87
2018-12-15T11:26:15.295Z,22.13
2018-12-15T11:28:44.580Z,20.97
2018-12-15T11:31:13.924Z,16.40
2018-12-15T11:33:43.226Z,16.17
2018-12-15T11:36:12.532Z,17.13
2018-12-15T11:38:41.792Z,18.13
2018-12-15T11:41:11.084Z,17.20
2018-12-15T11:43:40.412Z,17.77
2018-12-15T11:46:09.719Z,17.13
2018-12-15T11:48:39.128Z,16.20
2018-12-15T11:51:08.369Z,16.73
2018-12-15T11:53:37.717Z,17.10
2018-12-15T11:56:07.134Z,16.70
2018-12-15T11:58:36.712Z,16.23
2018-12-15T12:01:06.145Z,17.33
2018-12-15T12:03:35.464Z,16.73
2018-12-15T12:06:05.165Z,16.57
2018-12-15T12:08:34.570Z,15.77
2018-12-15T12:11:03.925Z,16.60
2018-12-15T12:13:33.278Z,17.23
2018-12-15T12:16:02.699Z,15.83
2018-12-15T12:18:32.000Z,15.83
2018-12-15T12:21:01.323Z,15.90
2018-12-15T12:23:30.619Z,16.93
2018-12-15T12:25:59.901Z,17.67
2018-12-15T12:28:29.219Z,16.53
2018-12-15T12:30:58.587Z,16.17
2018-12-15T12:33:27.872Z,16.33
2018-12-15T12:35:57.181Z,19.13
2018-12-15T12:38:26.538Z,18.57
2018-12-15T12:40:55.917Z,20.20
2018-12-15T12:43:26.087Z,17.50
2018-12-15T12:45:55.555Z,16.23
2018-12-15T12:48:24.828Z,19.00
2018-12-15T12:50:54.137Z,17.80
2018-12-15T12:53:23.411Z,19.20
2018-12-15T12:55:52.682Z,17.97
2018-12-15T12:58:23.549Z,16.27
2018-12-15T13:00:52.794Z,18.80
2018-12-15T13:03:22.092Z,15.80
2018-12-15T13:05:51.467Z,15.00
2018-12-15T13:08:20.770Z,16.63
2018-12-15T13:10:50.841Z,16.17
2018-12-15T13:13:20.195Z,15.10
2018-12-15T13:15:49.491Z,16.60
2018-12-15T13:18:19.033Z,14.90
2018-12-15T13:20:48.308Z,16.27
2018-12-15T13:23:17.611Z,16.67
2018-12-15T13:25:46.996Z,15.27
2018-12-15T13:28:16.426Z,16.73
2018-12-15T13:30:45.804Z,14.73
2018-12-15T13:33:27.280Z,16.13
2018-12-15T13:35:56.594Z,15.53
2018-12-15T13:38:25.888Z,16.27
2018-12-15T13:40:55.151Z,17.07
2018-12-15T13:43:24.451Z,16.73
2018-12-15T13:45:53.854Z,17.40
2018-12-15T13:48:23.205Z,15.43
2018-12-15T13:50:52.456Z,15.60
2018-12-15T13:53:21.866Z,15.73
2018-12-15T13:55:51.416Z,15.77
2018-12-15T13:58:20.867Z,16.07
2018-12-15T14:00:50.331Z,15.70
2018-12-15T14:03:19.625Z,16.87
2018-12-15T14:05:49.640Z,17.93
2018-12-15T14:08:19.022Z,16.17
2018-12-15T14:10:48.394Z,17.67
2018-12-15T14:13:17.710Z,20.80
2018-12-15T14:15:47.006Z,17.13
2018-12-15T14:18:16.291Z,16.50
2018-12-15T14:20:45.589Z,17.73
2018-12-15T14:23:15.146Z,20.43
2018-12-15T14:25:44.859Z,29.47
2018-12-15T14:28:14.220Z,31.33
2018-12-15T14:30:43.488Z,23.20
2018-12-15T14:33:12.823Z,20.17
2018-12-15T14:35:42.146Z,24.17
2018-12-15T14:38:11.451Z,17.83
2018-12-15T14:40:40.794Z,22.30
2018-12-15T14:43:10.118Z,26.00
2018-12-15T14:45:39.405Z,21.97
2018-12-15T14:48:08.669Z,24.03
2018-12-15T14:50:37.982Z,16.07
2018-12-15T14:53:07.252Z,16.07
2018-12-15T14:55:36.680Z,16.17
2018-12-15T14:58:06.050Z,17.07
2018-12-15T15:00:35.342Z,16.60
2018-12-15T15:03:04.668Z,16.43
2018-12-15T15:05:34.089Z,16.63
2018-12-15T15:08:03.370Z,17.80
2018-12-15T15:10:32.663Z,17.40
2018-12-15T15:13:01.947Z,17.47
2018-12-15T15:15:31.283Z,18.23
2018-12-15T15:18:00.579Z,17.93
2018-12-15T15:20:29.993Z,17.13
2018-12-15T15:22:59.557Z,16.57
2018-12-15T15:25:28.874Z,17.67
2018-12-15T15:27:58.219Z,16.57
2018-12-15T15:30:27.602Z,16.90
2018-12-15T15:32:56.969Z,17.00
2018-12-15T15:35:26.223Z,18.50
2018-12-15T15:37:55.576Z,17.90
2018-12-15T15:40:24.894Z,17.37
2018-12-15T15:42:54.238Z,17.90
2018-12-15T15:45:23.597Z,18.50
2018-12-15T15:47:52.877Z,18.13
2018-12-15T15:50:22.146Z,18.37
2018-12-15T15:52:51.527Z,17.47
2018-12-15T15:55:20.915Z,18.77
2018-12-15T15:57:50.231Z,18.37
2018-12-15T16:00:19.569Z,17.33
2018-12-15T16:02:49.054Z,17.40
2018-12-15T16:05:18.320Z,18.47
2018-12-15T16:07:47.663Z,18.40
2018-12-15T16:10:17.407Z,18.73
2018-12-15T16:12:46.930Z,17.87
2018-12-15T16:15:16.295Z,16.80
2018-12-15T16:17:45.595Z,15.97
2018-12-15T16:20:14.911Z,17.47
2018-12-15T16:22:44.444Z,18.23
2018-12-15T16:25:14.672Z,17.90
2018-12-15T16:27:44.455Z,19.33
2018-12-15T16:30:13.869Z,18.80
2018-12-15T16:32:43.164Z,18.27
2018-12-15T16:35:12.532Z,17.93
2018-12-15T16:37:42.092Z,17.17
2018-12-15T16:40:11.562Z,23.70
2018-12-15T16:42:40.847Z,26.67
2018-12-15T16:45:10.174Z,29.23
2018-12-15T16:47:39.520Z,22.63
2018-12-15T16:50:10.523Z,20.70
2018-12-15T16:52:40.451Z,19.67
2018-12-15T16:55:10.337Z,20.63
2018-12-15T16:57:39.660Z,20.27
2018-12-15T17:00:10.621Z,18.27
2018-12-15T17:02:39.908Z,18.77
2018-12-15T17:05:09.296Z,19.23
2018-12-15T17:07:38.630Z,19.90
2018-12-15T17:10:07.987Z,20.47
2018-12-15T17:12:37.288Z,19.30
2018-12-15T17:15:07.017Z,18.60
2018-12-15T17:17:36.321Z,18.80
2018-12-15T17:20:08.009Z,19.07
2018-12-15T17:22:37.296Z,19.43
2018-12-15T17:25:07.724Z,19.63
2018-12-15T17:27:36.990Z,18.53
2018-12-15T17:30:08.092Z,19.63
2018-12-15T17:32:37.375Z,19.13
2018-12-15T17:35:06.768Z,20.50
2018-12-15T17:37:36.034Z,19.07
2018-12-15T17:40:07.224Z,18.73
2018-12-15T17:42:36.652Z,19.37
2018-12-15T17:45:06.694Z,21.70
2018-12-15T17:47:36.044Z,19.70
2018-12-15T17:50:06.151Z,19.10
2018-12-15T17:52:35.410Z,19.13
2018-12-15T17:55:06.447Z,18.23
2018-12-15T17:57:36.034Z,19.50
2018-12-15T18:00:08.578Z,19.13
2018-12-15T18:02:37.927Z,19.70
2018-12-15T18:05:07.322Z,19.60
2018-12-15T18:07:36.608Z,19.50
2018-12-15T18:10:07.579Z,18.07
2018-12-15T18:12:36.871Z,18.50
2018-12-15T18:15:06.532Z,19.17
2018-12-15T18:17:35.820Z,19.30
2018-12-15T18:20:06.035Z,19.83
2018-12-15T18:22:35.337Z,19.77
2018-12-15T18:25:05.202Z,20.03
2018-12-15T18:27:34.444Z,19.53
2018-12-15T18:30:05.031Z,18.33
2018-12-15T18:32:34.335Z,19.07
2018-12-15T18:35:03.720Z,20.40
2018-12-15T18:37:33.082Z,20.17
2018-12-15T18:40:02.402Z,18.77
2018-12-15T18:42:31.740Z,19.30
2018-12-15T18:45:01.009Z,18.67
2018-12-15T18:47:30.299Z,18.33
2018-12-15T18:49:59.598Z,19.67
2018-12-15T18:52:28.875Z,19.30
2018-12-15T18:54:58.170Z,20.00
2018-12-15T18:57:27.448Z,19.73
2018-12-15T18:59:57.119Z,18.07
2018-12-15T19:02:26.393Z,20.33
2018-12-15T19:04:55.690Z,22.67
2018-12-15T19:07:25.013Z,20.13
2018-12-15T19:09:54.319Z,19.47
2018-12-15T19:12:23.654Z,20.70
2018-12-15T19:14:52.935Z,21.17
2018-12-15T19:17:22.223Z,21.03
2018-12-15T19:19:51.536Z,20.43
2018-12-15T19:22:21.086Z,24.73
2018-12-15T19:24:50.348Z,21.20
2018-12-15T19:27:19.642Z,21.93
2018-12-15T19:29:49.109Z,21.53
2018-12-15T19:32:18.407Z,20.53
2018-12-15T19:34:52.466Z,20.30
2018-12-15T19:37:19.156Z,20.77
2018-12-15T19:39:48.510Z,21.10
2018-12-15T19:42:17.762Z,20.70
2018-12-15T19:44:47.079Z,21.67
2018-12-15T19:47:16.383Z,21.10
2018-12-15T19:49:45.975Z,20.80
2018-12-15T19:52:15.271Z,21.40
2018-12-15T19:54:44.553Z,20.93
2018-12-15T19:57:13.866Z,21.67
2018-12-15T19:59:43.155Z,21.07
2018-12-15T20:02:12.447Z,19.83
2018-12-15T20:04:41.727Z,20.30
2018-12-15T20:07:10.990Z,20.50
2018-12-15T20:09:40.266Z,21.60
2018-12-15T20:12:09.624Z,20.00
2018-12-15T20:14:38.887Z,21.77
2018-12-15T20:17:08.243Z,20.57
2018-12-15T20:19:37.514Z,20.80
2018-12-15T20:22:06.800Z,20.63
2018-12-15T20:24:36.103Z,20.07
2018-12-15T20:27:05.411Z,21.33
2018-12-15T20:29:34.690Z,20.70
2018-12-15T20:32:04.002Z,19.70
2018-12-15T20:34:39.679Z,19.67
2018-12-15T20:37:10.264Z,21.33
2018-12-15T20:39:39.539Z,20.97
2018-12-15T20:42:08.828Z,20.47
2018-12-15T20:44:41.679Z,20.77
2018-12-15T20:47:09.440Z,29.07
2018-12-15T20:49:38.693Z,22.87
2018-12-15T20:52:07.986Z,22.83
2018-12-15T20:54:37.275Z,22.90
2018-12-15T20:57:08.048Z,24.43
2018-12-15T20:59:37.664Z,23.43
2018-12-15T21:02:07.086Z,27.57
2018-12-15T21:04:36.388Z,23.03
2018-12-15T21:07:05.721Z,23.77
2018-12-15T21:09:35.073Z,19.40
2018-12-15T21:12:04.408Z,20.57
2018-12-15T21:14:33.763Z,22.00
2018-12-15T21:17:03.048Z,20.67
2018-12-15T21:19:32.397Z,21.40
2018-12-15T21:22:01.687Z,20.43
2018-12-15T21:24:31.003Z,22.43
2018-12-15T21:27:00.326Z,20.77
2018-12-15T21:29:29.623Z,24.10
2018-12-15T21:31:59.399Z,23.90
2018-12-15T21:34:28.790Z,20.83
2018-12-15T21:36:58.127Z,21.17
2018-12-15T21:39:27.579Z,26.43
2018-12-15T21:41:56.862Z,22.23
2018-12-15T21:44:26.136Z,22.10
2018-12-15T21:46:55.430Z,26.00
2018-12-15T21:49:24.833Z,20.93
2018-12-15T21:51:56.346Z,25.97
2018-12-15T21:54:25.421Z,19.93
2018-12-15T21:56:54.737Z,20.57
2018-12-15T21:59:24.039Z,20.17
2018-12-15T22:01:53.380Z,21.03
2018-12-15T22:04:22.675Z,20.80
2018-12-15T22:06:51.945Z,19.67
2018-12-15T22:09:21.230Z,20.07
2018-12-15T22:11:50.523Z,19.90
2018-12-15T22:14:19.801Z,20.50
2018-12-15T22:16:49.017Z,19.87
2018-12-15T22:19:18.888Z,18.30
2018-12-15T22:21:48.152Z,20.03
2018-12-15T22:24:17.464Z,19.73
2018-12-15T22:26:46.845Z,19.70
2018-12-15T22:29:17.064Z,19.00
2018-12-15T22:31:46.400Z,19.10
2018-12-15T22:34:15.705Z,19.07
2018-12-15T22:36:44.989Z,17.83
2018-12-15T22:39:14.271Z,19.03
2018-12-15T22:41:43.540Z,19.50
2018-12-15T22:44:14.395Z,18.07
2018-12-15T22:46:44.087Z,20.37
2018-12-15T22:49:13.375Z,19.00
2018-12-15T22:51:42.636Z,19.10
2018-12-15T22:54:11.919Z,18.73
2018-12-15T22:56:41.249Z,18.57
2018-12-15T22:59:10.571Z,19.37
2018-12-15T23:01:46.514Z,18.47
2018-12-15T23:04:15.882Z,18.90
2018-12-15T23:06:45.209Z,19.90
2018-12-15T23:09:14.498Z,18.20
2018-12-15T23:11:43.844Z,18.63
2018-12-15T23:14:13.126Z,19.27
2018-12-15T23:16:42.436Z,19.70
2018-12-15T23:19:11.733Z,18.43
2018-12-15T23:21:41.316Z,18.87
2018-12-15T23:24:11.037Z,19.67
2018-12-15T23:26:40.336Z,18.97
2018-12-15T23:29:09.627Z,19.23
2018-12-15T23:31:38.911Z,20.50
2018-12-15T23:34:08.217Z,18.13
2018-12-15T23:36:37.495Z,19.57
2018-12-15T23:39:07.260Z,19.93
2018-12-15T23:41:36.503Z,19.13
2018-12-15T23:44:05.775Z,19.67
2018-12-15T23:46:35.039Z,19.30
2018-12-15T23:49:04.357Z,20.33
2018-12-15T23:51:33.681Z,19.33
2018-12-15T23:54:02.968Z,19.67
2018-12-15T23:56:32.277Z,19.17
2018-12-15T23:59:01.565Z,19.20
